Time;durP1;ratioP1;P1;durP2;ratioP2;P2;SDS_P1;SDS_P2;PMS_P1;PMS_P2;Temp;Humidity;BMP_temperature;BMP_pressure;BME280_temperature;BME280_humidity;BME280_pressure;Samples;Min_cycle;Max_cycle;Signal;HPM_P1;HPM_P2
2023/01/31 00:04:59;;;;;;;2.28;0.98;;;14.60;65.10;;;;;;10416411;28;20120;-55
2023/01/31 00:10:00;;;;;;;2.17;0.80;;;14.50;65.10;;;;;;10405182;28;20105;-55
2023/01/31 00:15:00;;;;;;;4.32;1.60;;;14.50;65.10;;;;;;10403819;28;20131;-54
2023/01/31 00:20:01;;;;;;;2.03;0.90;;;14.50;65.10;;;;;;10405591;28;20081;-54
2023/01/31 00:25:03;;;;;;;2.88;0.70;;;14.50;65.20;;;;;;10441619;28;20532;-56
2023/01/31 00:30:04;;;;;;;1.27;0.60;;;14.50;65.20;;;;;;10453672;28;20474;-55
2023/01/31 00:35:05;;;;;;;2.42;0.70;;;14.50;65.10;;;;;;10469531;28;20025;-56
2023/01/31 00:40:07;;;;;;;3.10;1.30;;;14.40;65.10;;;;;;10452673;28;20053;-56
2023/01/31 00:45:08;;;;;;;1.73;1.08;;;14.40;65.10;;;;;;10425791;28;20033;-55
2023/01/31 00:50:13;;;;;;;3.13;0.82;;;14.40;65.00;;;;;;10419120;28;20032;-55
2023/01/31 00:55:14;;;;;;;1.85;0.52;;;14.40;65.10;;;;;;10437982;28;20592;-55
2023/01/31 01:00:15;;;;;;;4.00;0.85;;;14.40;65.70;;;;;;10412230;28;20036;-55
2023/01/31 01:05:16;;;;;;;2.10;0.65;;;14.40;65.10;;;;;;10411771;28;20037;-55
2023/01/31 01:10:17;;;;;;;2.53;0.88;;;14.30;64.90;;;;;;10410591;28;20656;-56
2023/01/31 01:15:18;;;;;;;3.95;1.70;;;14.30;64.90;;;;;;10411831;28;20476;-55
2023/01/31 01:20:19;;;;;;;2.78;0.63;;;14.30;65.00;;;;;;10411373;28;20041;-56
2023/01/31 01:25:20;;;;;;;1.42;0.70;;;14.30;65.30;;;;;;10451508;28;20029;-54
2023/01/31 01:30:20;;;;;;;2.88;0.60;;;14.30;65.00;;;;;;10452269;28;20025;-54
2023/01/31 01:35:21;;;;;;;2.03;0.88;;;14.30;65.10;;;;;;10421147;28;20040;-55
2023/01/31 01:40:22;;;;;;;1.60;0.52;;;14.30;64.80;;;;;;10408764;28;20422;-55
2023/01/31 01:45:23;;;;;;;2.03;1.02;;;14.30;64.80;;;;;;10421978;28;20033;-55
2023/01/31 01:50:41;;;;;;;2.08;1.48;;;14.20;64.60;;;;;;10416132;28;20444;-55
2023/01/31 01:55:59;;;;;;;2.88;0.68;;;14.20;64.90;;;;;;10408777;28;20108;-56
2023/01/31 02:01:04;;;;;;;1.88;0.77;;;14.20;64.90;;;;;;10410070;28;20022;-55
2023/01/31 02:06:05;;;;;;;1.90;0.93;;;14.20;64.90;;;;;;10408314;28;20033;-56
2023/01/31 02:11:30;;;;;;;3.88;0.95;;;14.20;64.80;;;;;;10408173;28;20374;-56
2023/01/31 02:16:30;;;;;;;1.35;0.88;;;14.20;64.60;;;;;;10408023;28;20045;-55
2023/01/31 02:21:57;;;;;;;2.42;0.60;;;14.20;64.60;;;;;;10417081;28;20056;-55
2023/01/31 02:27:38;;;;;;;1.90;0.70;;;14.10;64.70;;;;;;10447653;28;20036;-56
2023/01/31 02:32:57;;;;;;;2.22;0.80;;;14.10;64.80;;;;;;10407697;28;20025;-54
2023/01/31 02:38:24;;;;;;;2.75;1.00;;;14.10;64.60;;;;;;10421943;28;20028;-56
2023/01/31 02:44:57;;;;;;;1.35;0.50;;;14.10;64.80;;;;;;10423198;28;20059;-55
2023/01/31 02:49:35;;;;;;;1.45;0.90;;;14.30;64.50;;;;;;10415008;28;20064;-54
2023/01/31 02:56:13;;;;;;;2.50;0.75;;;14.50;63.60;;;;;;10419819;28;20077;-55
2023/01/31 02:59:57;;;;;;;1.52;0.60;;;14.70;62.90;;;;;;10433585;28;20464;-56
2023/01/31 03:04:58;;;;;;;2.28;0.70;;;15.00;62.90;;;;;;10419366;28;20648;-55
2023/01/31 03:10:12;;;;;;;1.45;0.40;;;15.20;61.50;;;;;;10407428;28;20100;-55
2023/01/31 03:21:20;;;;;;;1.67;0.90;;;15.70;60.20;;;;;;10422062;28;20041;-53
2023/01/31 03:26:22;;;;;;;1.73;0.60;;;15.90;59.50;;;;;;10439292;28;20017;-56
2023/01/31 03:31:36;;;;;;;3.08;1.38;;;16.10;59.20;;;;;;10389310;28;20016;-56
2023/01/31 03:37:15;;;;;;;1.70;0.70;;;16.20;58.90;;;;;;10405087;28;20048;-55
2023/01/31 03:42:30;;;;;;;2.22;0.60;;;16.30;58.80;;;;;;10411581;28;20061;-56
2023/01/31 03:47:42;;;;;;;1.80;0.52;;;16.30;58.70;;;;;;10393756;28;20550;-56
2023/01/31 03:53:05;;;;;;;1.50;0.68;;;16.40;58.60;;;;;;10412766;28;20029;-53
2023/01/31 03:58:10;;;;;;;2.58;0.85;;;16.40;58.60;;;;;;10418008;28;20108;-59
2023/01/31 04:03:34;;;;;;;2.00;0.40;;;16.50;58.50;;;;;;10404263;28;20018;-55
2023/01/31 04:08:36;;;;;;;1.80;0.73;;;16.50;58.40;;;;;;10388272;28;20084;-55
2023/01/31 04:13:37;;;;;;;1.63;0.70;;;16.60;58.40;;;;;;10404081;28;20105;-55
2023/01/31 04:18:37;;;;;;;2.60;0.65;;;16.60;58.30;;;;;;10428413;28;20041;-56
2023/01/31 04:23:38;;;;;;;2.25;0.43;;;16.60;58.20;;;;;;10444715;28;20020;-55
2023/01/31 04:28:40;;;;;;;1.95;0.93;;;16.60;58.20;;;;;;10446405;28;20095;-54
2023/01/31 04:33:41;;;;;;;1.42;0.50;;;16.70;58.10;;;;;;10415390;28;20385;-56
2023/01/31 04:38:41;;;;;;;1.75;0.50;;;16.70;58.20;;;;;;10404685;28;20108;-55
2023/01/31 04:43:42;;;;;;;1.42;0.60;;;16.70;58.10;;;;;;10412910;28;20013;-56
2023/01/31 04:48:42;;;;;;;1.52;0.52;;;16.80;58.30;;;;;;10425709;28;20100;-57
2023/01/31 04:53:43;;;;;;;2.05;0.60;;;16.80;58.60;;;;;;10442599;28;20485;-54
2023/01/31 04:58:44;;;;;;;1.17;0.50;;;16.90;58.40;;;;;;10427391;28;20079;-54
2023/01/31 05:03:45;;;;;;;1.60;0.80;;;16.90;58.50;;;;;;10427423;28;20105;-55
2023/01/31 05:08:46;;;;;;;1.17;0.50;;;16.90;58.90;;;;;;10397812;28;20466;-53
2023/01/31 05:13:47;;;;;;;1.38;0.47;;;16.90;58.90;;;;;;10399411;28;20468;-54
2023/01/31 05:18:49;;;;;;;1.13;0.45;;;16.80;58.90;;;;;;10434759;28;20052;-55
2023/01/31 05:23:50;;;;;;;2.15;0.80;;;16.80;59.00;;;;;;10434973;28;20071;-55
2023/01/31 05:28:50;;;;;;;1.83;0.40;;;16.80;59.10;;;;;;10448810;28;20100;-55
2023/01/31 05:33:52;;;;;;;4.05;0.70;;;16.70;59.30;;;;;;10447380;28;20052;-54
2023/01/31 05:38:52;;;;;;;1.65;0.43;;;16.70;59.40;;;;;;10450266;28;20017;-56
2023/01/31 05:43:53;;;;;;;1.85;0.70;;;16.60;59.60;;;;;;10441843;28;20478;-56
2023/01/31 05:48:54;;;;;;;2.00;1.08;;;16.60;59.70;;;;;;10407480;28;20560;-55
2023/01/31 05:53:55;;;;;;;1.25;0.68;;;16.50;59.90;;;;;;10412616;28;20032;-55
2023/01/31 05:58:55;;;;;;;3.00;0.73;;;16.50;60.00;;;;;;10405596;28;20472;-55
2023/01/31 06:03:56;;;;;;;1.10;0.60;;;16.40;60.00;;;;;;10422893;28;20021;-53
2023/01/31 06:08:57;;;;;;;1.85;0.50;;;16.50;60.00;;;;;;10407697;28;20499;-49
2023/01/31 06:13:58;;;;;;;2.30;0.68;;;16.40;60.20;;;;;;10416173;28;20014;-53
2023/01/31 06:18:59;;;;;;;2.47;0.50;;;16.50;61.20;;;;;;10404130;28;20545;-54
2023/01/31 06:24:00;;;;;;;5.15;1.00;;;16.50;61.00;;;;;;10434952;28;20048;-53
2023/01/31 06:29:01;;;;;;;2.65;0.68;;;16.60;61.40;;;;;;10446654;28;20017;-56
2023/01/31 06:34:02;;;;;;;3.28;1.00;;;16.50;61.90;;;;;;10445012;28;20112;-49
2023/01/31 06:39:03;;;;;;;12.38;1.30;;;16.50;61.90;;;;;;10446226;28;20152;-54
2023/01/31 06:44:04;;;;;;;4.65;1.02;;;16.40;61.90;;;;;;10437785;28;20033;-52
2023/01/31 06:49:04;;;;;;;6.68;1.20;;;16.40;61.80;;;;;;10422511;28;20027;-53
2023/01/31 06:54:05;;;;;;;10.15;1.65;;;16.40;62.10;;;;;;10408780;28;20117;-50
2023/01/31 06:59:06;;;;;;;4.60;1.27;;;16.40;62.30;;;;;;10403053;28;20030;-52
2023/01/31 07:04:06;;;;;;;5.40;1.05;;;16.40;62.30;;;;;;10406592;28;20167;-52
2023/01/31 07:09:07;;;;;;;6.70;1.67;;;16.40;62.10;;;;;;10443604;28;20096;-51
2023/01/31 07:14:08;;;;;;;10.27;2.08;;;16.40;62.50;;;;;;10439348;28;20017;-53
2023/01/31 07:19:08;;;;;;;5.70;1.42;;;16.40;62.30;;;;;;10440395;28;20566;-54
2023/01/31 07:24:09;;;;;;;4.95;1.00;;;16.30;62.10;;;;;;10442376;28;20033;-53
2023/01/31 07:29:10;;;;;;;15.02;2.42;;;16.30;62.50;;;;;;10441071;28;20075;-54
2023/01/31 07:34:11;;;;;;;6.95;2.50;;;16.20;62.00;;;;;;10444083;28;20099;-53
2023/01/31 07:39:12;;;;;;;8.10;1.63;;;16.20;61.90;;;;;;10444647;28;20025;-56
2023/01/31 07:44:13;;;;;;;6.07;1.70;;;16.20;62.00;;;;;;10434966;28;20187;-54
2023/01/31 07:49:13;;;;;;;3.88;1.45;;;16.30;61.60;;;;;;10426150;28;20031;-54
2023/01/31 07:54:14;;;;;;;8.50;1.33;;;16.30;61.70;;;;;;10420145;28;20037;-54
2023/01/31 07:59:16;;;;;;;13.93;2.08;;;16.20;61.90;;;;;;10403516;28;20032;-55
2023/01/31 08:04:17;;;;;;;9.00;1.52;;;16.30;61.70;;;;;;10403096;28;20840;-54
2023/01/31 08:09:18;;;;;;;8.15;1.88;;;16.30;61.60;;;;;;10402979;28;20104;-58
2023/01/31 08:14:24;;;;;;;6.57;2.08;;;16.30;61.70;;;;;;10402889;28;20028;-56
2023/01/31 08:19:25;;;;;;;6.53;1.25;;;16.20;62.30;;;;;;10401567;28;20073;-55
2023/01/31 08:24:26;;;;;;;4.43;1.83;;;16.30;61.30;;;;;;10434613;28;20072;-55
2023/01/31 08:29:27;;;;;;;6.03;1.55;;;16.50;60.80;;;;;;10444616;28;20017;-55
2023/01/31 08:34:28;;;;;;;10.20;2.10;;;16.70;60.20;;;;;;10443886;28;20613;-56
2023/01/31 08:39:29;;;;;;;6.05;1.20;;;16.90;59.60;;;;;;10440119;28;20021;-55
2023/01/31 08:44:29;;;;;;;4.90;1.25;;;17.10;59.10;;;;;;10402330;28;20038;-55
2023/01/31 08:49:32;;;;;;;4.25;1.15;;;17.10;59.10;;;;;;10436750;28;20009;-55
2023/01/31 08:54:33;;;;;;;4.75;1.50;;;17.20;58.80;;;;;;10449383;28;20046;-55
2023/01/31 08:59:33;;;;;;;6.90;1.27;;;17.10;58.90;;;;;;10449745;28;20021;-55
2023/01/31 09:04:34;;;;;;;5.32;1.05;;;17.10;58.90;;;;;;10451811;28;20108;-56
2023/01/31 09:09:35;;;;;;;10.18;2.30;;;17.20;59.00;;;;;;10450087;28;20100;-56
2023/01/31 09:14:35;;;;;;;7.07;1.33;;;17.20;59.60;;;;;;10445204;28;20104;-56
2023/01/31 09:19:37;;;;;;;4.35;1.27;;;17.20;60.50;;;;;;10409006;28;20069;-56
2023/01/31 09:24:37;;;;;;;5.63;1.40;;;17.10;61.80;;;;;;10444419;28;20029;-56
2023/01/31 09:29:38;;;;;;;8.15;1.60;;;17.10;61.30;;;;;;10449402;28;20096;-56
2023/01/31 09:34:39;;;;;;;7.20;1.95;;;17.10;61.70;;;;;;10448939;28;20124;-55
2023/01/31 09:39:39;;;;;;;5.00;1.45;;;17.10;61.30;;;;;;10450663;28;20029;-56
2023/01/31 09:44:44;;;;;;;5.78;1.23;;;17.10;61.10;;;;;;10436723;28;20084;-54
2023/01/31 09:50:09;;;;;;;4.15;1.67;;;17.00;61.50;;;;;;10407540;28;20091;-50
2023/01/31 09:55:45;;;;;;;5.53;1.50;;;16.90;61.50;;;;;;10407284;28;20044;-54
2023/01/31 10:01:31;;;;;;;8.25;1.80;;;16.80;60.80;;;;;;10437468;28;20017;-55
2023/01/31 10:07:04;;;;;;;9.90;1.52;;;16.80;60.60;;;;;;10394477;28;20311;-55
2023/01/31 10:12:21;;;;;;;3.67;1.13;;;16.90;60.30;;;;;;10406032;28;20037;-54
2023/01/31 10:17:27;;;;;;;4.00;1.17;;;16.90;60.30;;;;;;10404693;28;20049;-53
2023/01/31 10:23:14;;;;;;;5.13;1.02;;;16.90;60.30;;;;;;10422936;28;20488;-54
2023/01/31 10:28:43;;;;;;;4.53;1.25;;;16.90;60.30;;;;;;10408871;28;20037;-54
2023/01/31 10:34:05;;;;;;;5.53;1.15;;;16.90;60.20;;;;;;10406863;28;20476;-54
2023/01/31 10:39:31;;;;;;;4.85;1.30;;;16.90;60.20;;;;;;10405771;28;20032;-56
2023/01/31 10:44:54;;;;;;;5.57;2.45;;;16.90;60.00;;;;;;10417646;28;20025;-55
2023/01/31 10:49:55;;;;;;;3.58;1.23;;;16.90;60.00;;;;;;10413803;28;20036;-55
2023/01/31 10:55:35;;;;;;;4.95;1.13;;;16.90;59.80;;;;;;10406175;28;20057;-55
2023/01/31 11:00:36;;;;;;;4.50;1.33;;;17.00;59.60;;;;;;10405870;28;20056;-56
2023/01/31 11:05:51;;;;;;;2.47;1.35;;;17.10;59.40;;;;;;10404655;28;20362;-56
2023/01/31 11:10:54;;;;;;;4.82;1.10;;;17.00;59.50;;;;;;10430222;28;20154;-55
2023/01/31 11:15:56;;;;;;;2.33;1.13;;;17.00;59.50;;;;;;10421127;28;20032;-57
2023/01/31 11:20:59;;;;;;;5.55;1.30;;;17.00;59.50;;;;;;10427673;28;20745;-56
2023/01/31 11:26:00;;;;;;;10.10;1.67;;;16.90;59.40;;;;;;10428056;28;20026;-54
2023/01/31 11:31:05;;;;;;;7.18;1.20;;;16.90;59.40;;;;;;10405414;28;20022;-52
2023/01/31 11:36:21;;;;;;;5.15;1.80;;;16.90;59.80;;;;;;10389180;28;20024;-56
2023/01/31 11:41:36;;;;;;;5.13;1.17;;;17.00;60.30;;;;;;10405395;28;20098;-54
2023/01/31 11:46:49;;;;;;;4.93;1.73;;;16.90;61.10;;;;;;10404874;28;20029;-55
2023/01/31 11:51:50;;;;;;;5.25;1.13;;;16.90;61.50;;;;;;10412913;28;20094;-54
2023/01/31 11:56:52;;;;;;;5.57;1.30;;;16.90;61.80;;;;;;10406399;28;20022;-55
2023/01/31 12:01:57;;;;;;;13.10;1.40;;;16.90;61.40;;;;;;10404628;28;20049;-55
2023/01/31 12:07:21;;;;;;;6.47;1.48;;;16.90;61.20;;;;;;10430654;28;20043;-58
2023/01/31 12:12:25;;;;;;;6.63;1.92;;;16.90;60.90;;;;;;10445368;28;20017;-54
2023/01/31 12:17:30;;;;;;;6.35;1.35;;;16.90;60.80;;;;;;10444495;28;20045;-55
2023/01/31 12:22:53;;;;;;;5.35;1.60;;;16.90;60.80;;;;;;10420813;28;20017;-55
2023/01/31 12:28:33;;;;;;;4.03;1.27;;;16.90;60.80;;;;;;10446400;28;20492;-54
2023/01/31 12:33:50;;;;;;;3.87;1.10;;;16.80;60.70;;;;;;10428734;28;20025;-55
2023/01/31 12:38:57;;;;;;;7.53;1.25;;;16.70;61.70;;;;;;10435697;28;20480;-56
2023/01/31 12:44:37;;;;;;;6.78;1.38;;;16.80;61.70;;;;;;10437899;28;20029;-55
2023/01/31 12:50:27;;;;;;;4.60;1.67;;;16.80;61.90;;;;;;10437398;28;20056;-55
2023/01/31 12:55:43;;;;;;;3.10;1.35;;;16.80;61.90;;;;;;10411417;28;20052;-56
2023/01/31 13:01:05;;;;;;;4.53;1.00;;;16.90;61.40;;;;;;10437503;28;20289;-55
2023/01/31 13:06:14;;;;;;;6.30;1.00;;;16.90;61.30;;;;;;10411682;28;20026;-55
2023/01/31 13:11:26;;;;;;;6.80;1.40;;;16.80;61.40;;;;;;10418968;28;20018;-55
2023/01/31 13:16:40;;;;;;;6.15;0.90;;;16.80;61.40;;;;;;10432103;28;20140;-54
2023/01/31 13:21:49;;;;;;;6.22;1.30;;;16.80;61.60;;;;;;10443261;28;20032;-54
2023/01/31 13:27:01;;;;;;;8.95;1.77;;;16.80;61.50;;;;;;10444060;28;20033;-55
2023/01/31 13:32:09;;;;;;;4.95;2.10;;;16.80;61.40;;;;;;10429141;28;20021;-52
2023/01/31 13:37:25;;;;;;;5.30;1.33;;;16.80;61.60;;;;;;10407558;28;20032;-54
2023/01/31 13:42:27;;;;;;;7.07;1.63;;;16.90;61.70;;;;;;10410413;28;20033;-55
2023/01/31 13:47:34;;;;;;;10.63;1.80;;;17.00;61.70;;;;;;10418661;28;20029;-55
2023/01/31 13:52:45;;;;;;;15.63;1.88;;;16.80;61.80;;;;;;10444992;28;20094;-55
2023/01/31 13:57:56;;;;;;;9.05;2.25;;;16.90;61.70;;;;;;10437253;28;20052;-54
2023/01/31 14:03:13;;;;;;;19.58;3.85;;;16.90;61.60;;;;;;10408741;28;20564;-56
2023/01/31 14:08:26;;;;;;;22.55;5.50;;;16.80;61.60;;;;;;10415258;28;20071;-55
2023/01/31 14:13:32;;;;;;;32.45;4.95;;;16.70;61.70;;;;;;10424069;28;20017;-55
2023/01/31 14:18:42;;;;;;;29.95;5.63;;;16.60;62.00;;;;;;10425694;28;20405;-54
2023/01/31 14:23:46;;;;;;;30.27;4.82;;;16.80;61.50;;;;;;10447253;28;20023;-55
2023/01/31 14:28:46;;;;;;;18.40;3.97;;;17.00;61.00;;;;;;10447749;28;20033;-55
2023/01/31 14:33:49;;;;;;;23.40;6.15;;;17.00;60.60;;;;;;10447465;28;20013;-53
2023/01/31 14:39:17;;;;;;;15.40;3.55;;;17.00;60.70;;;;;;10444970;28;20673;-51
2023/01/31 14:44:45;;;;;;;15.68;4.07;;;17.00;60.70;;;;;;10430079;28;20124;-54
2023/01/31 14:50:38;;;;;;;16.55;3.10;;;16.90;60.70;;;;;;10412282;28;20017;-54
2023/01/31 14:56:03;;;;;;;18.63;3.78;;;16.90;60.70;;;;;;10405950;28;20076;-54
2023/01/31 15:01:06;;;;;;;13.10;3.60;;;16.80;60.80;;;;;;10405974;28;20022;-54
2023/01/31 15:06:26;;;;;;;10.88;2.53;;;16.80;60.80;;;;;;10405556;28;20036;-54
2023/01/31 15:11:39;;;;;;;14.70;2.30;;;16.80;60.70;;;;;;10404536;28;20025;-55
2023/01/31 15:16:40;;;;;;;10.93;2.33;;;16.80;60.80;;;;;;10387761;28;20045;-54
2023/01/31 15:21:57;;;;;;;13.77;2.63;;;16.80;60.60;;;;;;10427907;28;20781;-54
2023/01/31 15:27:05;;;;;;;12.82;3.20;;;16.80;60.70;;;;;;10421284;28;20048;-55
2023/01/31 15:32:39;;;;;;;20.52;2.25;;;16.80;60.70;;;;;;10408484;28;20457;-55
2023/01/31 15:37:41;;;;;;;17.88;3.00;;;16.80;61.10;;;;;;10407406;28;20453;-53
2023/01/31 15:42:41;;;;;;;14.43;3.45;;;16.90;62.20;;;;;;10418224;28;20017;-52
2023/01/31 15:47:52;;;;;;;10.20;2.75;;;16.90;61.70;;;;;;10446071;28;20028;-53
2023/01/31 15:53:05;;;;;;;15.43;2.97;;;16.90;61.40;;;;;;10439020;28;20028;-53
2023/01/31 15:58:14;;;;;;;11.27;3.13;;;17.00;61.30;;;;;;10431279;28;20157;-53
2023/01/31 16:03:24;;;;;;;12.35;2.80;;;17.00;61.70;;;;;;10404464;28;20592;-54
2023/01/31 16:08:35;;;;;;;17.67;3.50;;;16.90;62.10;;;;;;10412390;28;20126;-53
2023/01/31 16:13:41;;;;;;;14.85;3.95;;;16.80;62.40;;;;;;10423107;28;20032;-54
2023/01/31 16:18:54;;;;;;;26.55;4.00;;;16.80;62.40;;;;;;10398717;28;20041;-53
2023/01/31 16:23:59;;;;;;;17.23;2.97;;;16.80;62.40;;;;;;10444728;28;20025;-55
2023/01/31 16:29:12;;;;;;;19.13;3.28;;;16.70;62.60;;;;;;10404234;28;20098;-54
2023/01/31 16:34:29;;;;;;;10.02;2.65;;;16.70;62.30;;;;;;10409150;28;20022;-56
2023/01/31 16:39:51;;;;;;;17.15;3.40;;;16.70;62.40;;;;;;10425049;28;20025;-55
2023/01/31 16:44:51;;;;;;;13.38;2.92;;;16.70;62.70;;;;;;10423671;28;20033;-52
2023/01/31 16:50:22;;;;;;;12.60;2.72;;;16.70;62.60;;;;;;10414092;28;20028;-55
2023/01/31 16:55:23;;;;;;;13.75;4.00;;;16.80;62.30;;;;;;10425878;28;20112;-60
2023/01/31 17:00:23;;;;;;;11.48;4.03;;;17.00;62.90;;;;;;10407212;28;20029;-57
2023/01/31 17:05:40;;;;;;;13.00;3.53;;;17.20;63.40;;;;;;10409849;28;20033;-56
2023/01/31 17:10:40;;;;;;;15.15;3.97;;;17.30;62.80;;;;;;10406520;28;20112;-57
2023/01/31 17:15:41;;;;;;;16.83;4.38;;;17.40;62.70;;;;;;10425706;28;20082;-56
2023/01/31 17:20:48;;;;;;;25.15;5.35;;;17.50;62.90;;;;;;10427232;28;20676;-56
2023/01/31 17:25:48;;;;;;;15.05;4.53;;;17.40;63.40;;;;;;10451667;28;20039;-55
2023/01/31 17:30:49;;;;;;;15.73;3.55;;;17.20;64.50;;;;;;10451947;28;20100;-56
2023/01/31 17:35:50;;;;;;;15.15;3.75;;;17.10;65.30;;;;;;10451743;28;20021;-56
2023/01/31 17:40:51;;;;;;;13.70;3.88;;;17.00;65.00;;;;;;10451189;28;20020;-56
2023/01/31 17:45:52;;;;;;;17.48;4.85;;;16.70;64.80;;;;;;10434738;28;20452;-57
2023/01/31 17:50:53;;;;;;;17.70;3.63;;;16.70;65.60;;;;;;10441283;28;20104;-57
2023/01/31 17:55:54;;;;;;;13.90;3.30;;;16.60;65.60;;;;;;10438987;28;20025;-57
2023/01/31 18:00:55;;;;;;;16.05;3.40;;;16.50;65.50;;;;;;10419767;28;20053;-55
2023/01/31 18:06:03;;;;;;;14.98;3.20;;;16.40;65.60;;;;;;10436092;28;20033;-55
2023/01/31 18:11:08;;;;;;;12.60;3.03;;;16.30;65.70;;;;;;10451860;28;20657;-57
2023/01/31 18:16:13;;;;;;;11.57;3.88;;;16.30;65.20;;;;;;10450010;28;20648;-57
2023/01/31 18:21:18;;;;;;;16.00;2.88;;;16.30;65.20;;;;;;10436125;28;20017;-58
2023/01/31 18:26:20;;;;;;;10.43;2.15;;;16.30;65.10;;;;;;10443199;28;20070;-57
2023/01/31 18:31:20;;;;;;;15.70;3.85;;;16.40;64.60;;;;;;10449267;28;20376;-56
2023/01/31 18:36:21;;;;;;;10.98;2.75;;;16.50;64.80;;;;;;10449262;28;20024;-58
2023/01/31 18:41:22;;;;;;;7.75;3.03;;;16.60;64.50;;;;;;10450386;28;20017;-56
2023/01/31 18:46:23;;;;;;;16.17;3.13;;;16.60;64.60;;;;;;10422250;28;20114;-56
2023/01/31 18:51:24;;;;;;;11.25;3.42;;;16.60;64.50;;;;;;10425683;28;20030;-55
2023/01/31 18:56:25;;;;;;;12.75;2.88;;;16.60;64.30;;;;;;10421142;28;20071;-56
2023/01/31 19:01:29;;;;;;;13.55;2.30;;;16.60;64.40;;;;;;10427144;28;20025;-55
2023/01/31 19:06:36;;;;;;;20.95;3.15;;;16.60;65.10;;;;;;10425368;28;20421;-56
2023/01/31 19:11:39;;;;;;;10.95;2.67;;;16.60;65.10;;;;;;10448637;28;20073;-57
2023/01/31 19:16:41;;;;;;;5.40;2.08;;;16.70;64.90;;;;;;10447665;28;20041;-55
2023/01/31 19:21:41;;;;;;;10.60;1.83;;;16.70;65.00;;;;;;10447303;28;20108;-57
2023/01/31 19:26:43;;;;;;;4.85;1.75;;;16.60;65.20;;;;;;10439370;28;20028;-56
2023/01/31 19:31:44;;;;;;;7.43;1.50;;;16.60;65.50;;;;;;10429342;28;20009;-56
2023/01/31 19:36:45;;;;;;;7.78;2.17;;;16.60;65.40;;;;;;10426398;28;20017;-55
2023/01/31 19:41:46;;;;;;;5.60;2.00;;;16.60;65.50;;;;;;10431840;28;20021;-56
2023/01/31 19:46:50;;;;;;;3.22;1.35;;;16.70;64.70;;;;;;10420992;28;20030;-59
2023/01/31 19:51:50;;;;;;;5.97;1.90;;;16.80;64.40;;;;;;10413213;28;20025;-57
2023/01/31 19:56:52;;;;;;;7.65;1.67;;;16.80;64.60;;;;;;10422338;28;20025;-55
2023/01/31 20:01:52;;;;;;;5.55;1.95;;;16.70;64.70;;;;;;10417418;28;20017;-55
2023/01/31 20:06:53;;;;;;;3.97;1.95;;;16.60;64.80;;;;;;10422015;28;20025;-56
2023/01/31 20:11:54;;;;;;;6.85;2.40;;;16.60;64.70;;;;;;10443131;28;20630;-56
2023/01/31 20:16:54;;;;;;;4.82;1.30;;;16.60;64.40;;;;;;10442454;28;20071;-57
2023/01/31 20:21:55;;;;;;;4.05;1.70;;;16.60;64.50;;;;;;10426902;28;20033;-56
2023/01/31 20:26:56;;;;;;;7.13;1.95;;;16.60;64.30;;;;;;10443454;28;20108;-56
2023/01/31 20:31:56;;;;;;;5.22;1.70;;;16.60;64.20;;;;;;10442716;28;20044;-56
2023/01/31 20:36:57;;;;;;;4.03;1.60;;;16.50;64.40;;;;;;10424610;28;20092;-56
2023/01/31 20:41:58;;;;;;;3.75;1.63;;;16.40;64.50;;;;;;10432280;28;20483;-57
2023/01/31 20:46:58;;;;;;;6.38;2.47;;;16.30;64.70;;;;;;10420608;28;20105;-56
2023/01/31 20:51:59;;;;;;;10.73;3.88;;;16.30;64.90;;;;;;10419866;28;20101;-56
2023/01/31 20:57:00;;;;;;;4.28;2.10;;;16.20;65.10;;;;;;10412883;28;20083;-57
2023/01/31 21:02:00;;;;;;;4.15;1.30;;;16.10;65.30;;;;;;10412503;28;20100;-55
2023/01/31 21:07:01;;;;;;;3.58;1.25;;;16.00;65.40;;;;;;10411101;28;20033;-56
2023/01/31 21:12:02;;;;;;;3.72;1.52;;;15.90;65.50;;;;;;10411088;28;20074;-56
2023/01/31 21:17:03;;;;;;;4.55;1.30;;;15.90;65.70;;;;;;10438742;28;20053;-56
2023/01/31 21:22:03;;;;;;;2.90;1.67;;;15.80;65.60;;;;;;10424259;28;20123;-56
2023/01/31 21:27:04;;;;;;;4.50;1.42;;;15.80;65.70;;;;;;10451640;28;20108;-57
2023/01/31 21:32:05;;;;;;;2.83;1.02;;;15.70;65.70;;;;;;10422718;28;20096;-56
2023/01/31 21:37:06;;;;;;;6.70;1.25;;;15.70;65.70;;;;;;10409853;28;20060;-56
2023/01/31 21:42:15;;;;;;;3.13;1.23;;;15.70;65.80;;;;;;10414241;28;20077;-56
2023/01/31 21:47:15;;;;;;;5.40;1.00;;;15.60;65.80;;;;;;10416822;28;20135;-56
2023/01/31 21:52:16;;;;;;;4.75;1.20;;;15.50;65.90;;;;;;10426513;28;20024;-56
2023/01/31 21:57:17;;;;;;;4.28;2.28;;;15.50;65.90;;;;;;10428188;28;20045;-57
2023/01/31 22:02:18;;;;;;;3.60;1.10;;;15.50;65.90;;;;;;10409210;28;20108;-56
2023/01/31 22:07:18;;;;;;;2.95;1.40;;;15.40;65.90;;;;;;10408280;28;20164;-57
2023/01/31 22:12:19;;;;;;;3.28;0.90;;;15.40;66.00;;;;;;10410292;28;20045;-56
2023/01/31 22:17:19;;;;;;;2.38;1.00;;;15.30;66.00;;;;;;10409739;28;21010;-54
2023/01/31 22:22:20;;;;;;;4.22;1.52;;;15.30;66.10;;;;;;10424850;28;20533;-57
2023/01/31 22:27:21;;;;;;;1.95;0.80;;;15.30;66.10;;;;;;10417829;28;20087;-56
2023/01/31 22:32:21;;;;;;;2.20;0.98;;;15.30;66.00;;;;;;10408672;28;20024;-56
2023/01/31 22:37:22;;;;;;;2.42;1.02;;;15.30;66.10;;;;;;10408924;28;20045;-55
2023/01/31 22:42:23;;;;;;;4.32;1.58;;;15.20;66.10;;;;;;10428129;28;20525;-56
2023/01/31 22:47:23;;;;;;;4.80;1.20;;;15.20;66.10;;;;;;10449271;28;20429;-58
2023/01/31 22:52:24;;;;;;;3.38;0.93;;;15.20;66.20;;;;;;10440129;28;20591;-56
2023/01/31 22:57:26;;;;;;;2.45;0.90;;;15.20;66.10;;;;;;10448467;28;20017;-56
2023/01/31 23:02:27;;;;;;;2.13;0.85;;;15.10;66.20;;;;;;10448269;28;20021;-57
2023/01/31 23:07:28;;;;;;;2.17;1.10;;;15.10;66.20;;;;;;10447671;28;20036;-55
2023/01/31 23:12:29;;;;;;;1.48;0.70;;;15.10;66.20;;;;;;10434310;28;20819;-56
2023/01/31 23:17:36;;;;;;;2.65;1.02;;;15.00;66.10;;;;;;10389489;28;20064;-56
2023/01/31 23:22:37;;;;;;;1.48;0.80;;;15.00;66.20;;;;;;10425114;28;20025;-56
2023/01/31 23:27:38;;;;;;;3.72;1.40;;;15.00;66.20;;;;;;10447137;28;20520;-55
2023/01/31 23:32:40;;;;;;;1.95;1.00;;;15.00;66.20;;;;;;10413564;28;20029;-56
2023/01/31 23:37:40;;;;;;;3.40;1.00;;;15.00;66.20;;;;;;10405665;28;20049;-55
2023/01/31 23:42:41;;;;;;;2.85;1.00;;;15.00;66.10;;;;;;10427699;28;20049;-57
2023/01/31 23:47:43;;;;;;;2.75;0.95;;;14.90;66.10;;;;;;10436537;28;20116;-55
2023/01/31 23:52:44;;;;;;;3.10;1.20;;;14.90;66.10;;;;;;10415111;28;20455;-57
2023/01/31 23:57:45;;;;;;;3.03;0.98;;;14.90;66.10;;;;;;10404859;28;20061;-55
